createdAt,value
2017-12-22T00:02:25.084Z,12.20
2017-12-22T00:04:53.403Z,12.83
2017-12-22T00:07:22.577Z,13.00
2017-12-22T00:09:51.653Z,13.60
2017-12-22T00:12:20.744Z,12.73
2017-12-22T00:14:49.057Z,12.23
2017-12-22T00:17:17.414Z,12.50
2017-12-22T00:19:45.738Z,14.03
2017-12-22T00:22:14.872Z,13.50
2017-12-22T00:24:43.210Z,12.07
2017-12-22T00:27:12.543Z,13.07
2017-12-22T00:29:40.984Z,13.03
2017-12-22T00:32:09.318Z,13.20
2017-12-22T00:34:37.685Z,13.73
2017-12-22T00:37:05.996Z,13.00
2017-12-22T00:39:34.291Z,12.60
2017-12-22T00:42:02.639Z,11.90
2017-12-22T00:44:30.962Z,13.37
2017-12-22T00:47:00.000Z,11.80
2017-12-22T00:49:29.795Z,11.10
2017-12-22T00:51:59.587Z,12.07
2017-12-22T00:54:29.664Z,10.83
2017-12-22T00:56:59.249Z,11.88
2017-12-22T00:59:28.600Z,11.83
2017-12-22T01:01:56.951Z,11.70
2017-12-22T01:04:25.256Z,13.77
2017-12-22T01:06:54.341Z,12.13
2017-12-22T01:09:22.726Z,11.90
2017-12-22T01:11:51.077Z,11.60
2017-12-22T01:14:20.293Z,11.83
2017-12-22T01:16:54.881Z,11.00
2017-12-22T01:19:23.254Z,9.80
2017-12-22T01:21:51.623Z,10.90
2017-12-22T01:24:20.697Z,10.10
2017-12-22T01:26:49.078Z,12.03
2017-12-22T01:29:17.450Z,12.57
2017-12-22T01:31:45.772Z,10.53
2017-12-22T01:34:14.128Z,13.10
2017-12-22T01:36:42.479Z,12.00
2017-12-22T01:39:10.840Z,12.57
2017-12-22T01:41:39.216Z,11.43
2017-12-22T01:44:07.533Z,12.77
2017-12-22T01:46:35.841Z,12.60
2017-12-22T01:49:04.241Z,11.87
2017-12-22T01:51:33.289Z,10.90
2017-12-22T01:54:03.029Z,11.20
2017-12-22T01:56:32.299Z,12.33
2017-12-22T01:59:00.630Z,11.77
2017-12-22T02:01:28.967Z,11.47
2017-12-22T02:03:58.041Z,11.20
2017-12-22T02:06:27.145Z,10.10
2017-12-22T02:08:55.444Z,10.73
2017-12-22T02:11:23.820Z,11.70
2017-12-22T02:13:52.128Z,12.23
2017-12-22T02:16:20.443Z,11.40
2017-12-22T02:18:49.549Z,11.67
2017-12-22T02:21:17.885Z,12.50
2017-12-22T02:23:46.261Z,11.83
2017-12-22T02:26:15.493Z,11.67
2017-12-22T02:28:44.580Z,10.97
2017-12-22T02:31:13.761Z,11.43
2017-12-22T02:33:42.075Z,11.30
2017-12-22T02:36:10.389Z,12.33
2017-12-22T02:38:38.718Z,11.40
2017-12-22T02:41:07.081Z,11.30
2017-12-22T02:43:35.397Z,10.57
2017-12-22T02:46:03.771Z,11.70
2017-12-22T02:48:33.190Z,13.03
2017-12-22T02:51:02.130Z,12.23
2017-12-22T02:53:30.502Z,11.23
2017-12-22T02:55:58.801Z,10.40
2017-12-22T02:58:27.145Z,13.03
2017-12-22T03:00:55.447Z,13.13
2017-12-22T03:03:24.547Z,12.70
2017-12-22T03:05:52.849Z,13.90
2017-12-22T03:08:21.944Z,14.80
2017-12-22T03:10:50.245Z,14.30
2017-12-22T03:13:18.588Z,13.77
2017-12-22T03:15:46.926Z,12.97
2017-12-22T03:18:15.301Z,11.93
2017-12-22T03:20:43.665Z,13.00
2017-12-22T03:23:12.040Z,11.90
2017-12-22T03:25:40.412Z,12.90
2017-12-22T03:28:08.714Z,13.77
2017-12-22T03:30:37.043Z,10.67
2017-12-22T03:33:06.143Z,12.50
2017-12-22T03:35:35.247Z,13.10
2017-12-22T03:38:04.449Z,12.60
2017-12-22T03:40:33.523Z,12.10
2017-12-22T03:43:01.875Z,12.40
2017-12-22T03:45:30.201Z,11.30
2017-12-22T03:47:58.568Z,10.33
2017-12-22T03:50:26.869Z,11.70
2017-12-22T03:52:55.209Z,10.40
2017-12-22T03:55:23.548Z,11.90
2017-12-22T03:57:51.890Z,12.40
2017-12-22T04:00:20.215Z,10.60
2017-12-22T04:02:48.521Z,12.80
2017-12-22T04:05:16.952Z,10.20
2017-12-22T04:07:45.299Z,10.57
2017-12-22T04:10:13.597Z,11.40
2017-12-22T04:12:41.933Z,10.53
2017-12-22T04:15:10.241Z,11.33
2017-12-22T04:17:39.332Z,10.03
2017-12-22T04:20:07.664Z,11.53
2017-12-22T04:22:35.980Z,10.60
2017-12-22T04:25:04.383Z,9.13
2017-12-22T04:27:32.702Z,9.77
2017-12-22T04:30:01.032Z,11.00
2017-12-22T04:32:29.333Z,10.70
2017-12-22T04:34:57.651Z,9.37
2017-12-22T04:37:25.983Z,9.03
2017-12-22T04:39:54.307Z,8.87
2017-12-22T04:42:22.645Z,9.03
2017-12-22T04:44:51.701Z,9.03
2017-12-22T04:47:20.145Z,9.33
2017-12-22T04:49:48.463Z,8.30
2017-12-22T04:52:16.814Z,7.90
2017-12-22T04:54:45.188Z,8.90
2017-12-22T04:57:13.520Z,9.40
2017-12-22T04:59:41.830Z,8.87
2017-12-22T05:02:10.163Z,7.67
2017-12-22T05:04:38.473Z,7.43
2017-12-22T05:07:06.769Z,6.30
2017-12-22T05:09:36.637Z,6.00
2017-12-22T05:12:04.940Z,7.67
2017-12-22T05:14:33.238Z,6.13
2017-12-22T05:17:01.574Z,5.70
2017-12-22T05:19:30.677Z,6.10
2017-12-22T05:21:59.082Z,5.53
2017-12-22T05:24:27.404Z,6.40
2017-12-22T05:26:55.729Z,5.80
2017-12-22T05:29:24.790Z,7.33
2017-12-22T05:31:53.908Z,5.67
2017-12-22T05:34:22.222Z,6.07
2017-12-22T05:36:50.585Z,5.03
2017-12-22T05:39:18.941Z,5.23
2017-12-22T05:41:47.236Z,5.03
2017-12-22T05:44:16.295Z,5.00
2017-12-22T05:46:45.393Z,4.20
2017-12-22T05:49:13.703Z,5.20
2017-12-22T05:51:43.530Z,5.07
2017-12-22T05:54:11.835Z,5.20
2017-12-22T05:56:40.187Z,5.03
2017-12-22T05:59:08.529Z,5.47
2017-12-22T06:01:36.867Z,4.83
2017-12-22T06:04:05.273Z,4.23
2017-12-22T06:06:33.576Z,4.30
2017-12-22T06:09:01.944Z,5.80
2017-12-22T06:11:30.253Z,4.30
2017-12-22T06:13:59.378Z,4.90
2017-12-22T06:16:27.686Z,5.70
2017-12-22T06:18:56.004Z,4.53
2017-12-22T06:21:24.374Z,5.40
2017-12-22T06:23:53.469Z,5.13
2017-12-22T06:26:21.781Z,5.20
2017-12-22T06:28:50.132Z,4.63
2017-12-22T06:31:18.607Z,5.00
2017-12-22T06:33:47.069Z,5.80
2017-12-22T06:36:15.851Z,5.17
2017-12-22T06:38:45.361Z,4.73
2017-12-22T06:41:15.732Z,5.67
2017-12-22T06:43:45.357Z,4.90
2017-12-22T06:46:13.712Z,6.20
2017-12-22T06:48:42.342Z,5.57
2017-12-22T06:51:16.058Z,4.87
2017-12-22T06:53:45.321Z,4.50
2017-12-22T06:56:13.688Z,5.43
2017-12-22T06:58:42.439Z,5.47
2017-12-22T07:01:10.769Z,4.20
2017-12-22T07:03:39.125Z,4.67
2017-12-22T07:06:07.412Z,5.00
2017-12-22T07:08:35.763Z,4.70
2017-12-22T07:11:04.073Z,3.90
2017-12-22T07:13:32.417Z,4.20
2017-12-22T07:16:00.753Z,5.23
2017-12-22T07:18:29.099Z,4.30
2017-12-22T07:20:57.424Z,4.77
2017-12-22T07:23:25.790Z,4.03
2017-12-22T07:25:54.164Z,5.00
2017-12-22T07:28:22.522Z,3.93
2017-12-22T07:30:50.832Z,4.17
2017-12-22T07:33:19.125Z,5.47
2017-12-22T07:35:47.465Z,4.43
2017-12-22T07:38:15.794Z,3.77
2017-12-22T07:40:44.445Z,4.97
2017-12-22T07:43:13.602Z,4.80
2017-12-22T07:45:41.933Z,5.00
2017-12-22T07:48:10.269Z,3.83
2017-12-22T07:50:38.577Z,4.67
2017-12-22T07:53:06.881Z,5.17
2017-12-22T07:55:35.209Z,4.70
2017-12-22T07:58:03.525Z,4.73
2017-12-22T08:00:31.861Z,5.20
2017-12-22T08:03:00.221Z,5.40
2017-12-22T08:05:28.661Z,5.33
2017-12-22T08:07:56.979Z,4.20
2017-12-22T08:10:25.277Z,5.60
2017-12-22T08:12:53.869Z,5.27
2017-12-22T08:15:22.249Z,6.00
2017-12-22T08:17:51.365Z,5.23
2017-12-22T08:20:19.700Z,6.17
2017-12-22T08:22:48.005Z,6.23
2017-12-22T08:25:16.337Z,6.20
2017-12-22T08:27:45.289Z,6.93
2017-12-22T08:30:13.637Z,6.83
2017-12-22T08:32:41.987Z,6.60
2017-12-22T08:35:11.166Z,5.90
2017-12-22T08:37:39.515Z,5.60
2017-12-22T08:40:07.816Z,6.70
2017-12-22T08:42:36.166Z,7.43
2017-12-22T08:45:04.493Z,6.33
2017-12-22T08:47:32.822Z,7.07
2017-12-22T08:50:01.133Z,6.67
2017-12-22T08:52:30.228Z,6.33
2017-12-22T08:54:58.629Z,7.37
2017-12-22T08:57:26.961Z,6.30
2017-12-22T08:59:55.285Z,6.30
2017-12-22T09:02:23.625Z,5.63
2017-12-22T09:04:51.963Z,8.13
2017-12-22T09:07:22.768Z,7.10
2017-12-22T09:09:51.857Z,6.77
2017-12-22T09:12:20.515Z,7.20
2017-12-22T09:14:48.867Z,7.10
2017-12-22T09:17:17.310Z,6.43
2017-12-22T09:19:46.612Z,6.10
2017-12-22T09:22:14.913Z,6.10
2017-12-22T09:24:45.315Z,6.47
2017-12-22T09:27:14.673Z,6.70
2017-12-22T09:29:43.981Z,7.27
2017-12-22T09:32:12.756Z,7.30
2017-12-22T09:34:42.718Z,7.77
2017-12-22T09:37:12.865Z,7.63
2017-12-22T09:39:42.914Z,7.57
2017-12-22T09:42:12.810Z,7.53
2017-12-22T09:44:41.210Z,6.90
2017-12-22T09:47:10.319Z,8.83
2017-12-22T09:49:38.662Z,7.83
2017-12-22T09:52:07.054Z,8.70
2017-12-22T09:54:35.371Z,8.83
2017-12-22T09:57:04.469Z,9.17
2017-12-22T09:59:32.785Z,8.40
2017-12-22T10:02:01.112Z,9.30
2017-12-22T10:04:29.424Z,8.33
2017-12-22T10:06:57.799Z,7.93
2017-12-22T10:09:26.882Z,9.10
2017-12-22T10:11:55.868Z,8.63
2017-12-22T10:14:24.970Z,8.57
2017-12-22T10:16:53.264Z,8.27
2017-12-22T10:19:21.676Z,10.47
2017-12-22T10:21:50.012Z,10.47
2017-12-22T10:24:18.324Z,8.90
2017-12-22T10:26:47.463Z,9.07
2017-12-22T10:29:15.951Z,9.10
2017-12-22T10:31:44.528Z,8.53
2017-12-22T10:34:13.633Z,9.00
2017-12-22T10:36:42.075Z,9.77
2017-12-22T10:39:11.961Z,9.60
2017-12-22T10:41:40.316Z,9.90
2017-12-22T10:44:08.720Z,9.60
2017-12-22T10:46:36.985Z,11.07
2017-12-22T10:49:05.327Z,9.53
2017-12-22T10:51:33.660Z,9.67
2017-12-22T10:54:02.005Z,8.90
2017-12-22T10:56:31.114Z,9.87
2017-12-22T10:58:59.430Z,9.27
2017-12-22T11:01:28.577Z,10.47
2017-12-22T11:03:56.901Z,10.80
2017-12-22T11:06:25.972Z,9.80
2017-12-22T11:08:55.073Z,10.53
2017-12-22T11:11:23.408Z,10.67
2017-12-22T11:13:51.793Z,10.07
2017-12-22T11:16:20.123Z,10.30
2017-12-22T11:18:48.536Z,9.20
2017-12-22T11:21:16.853Z,8.73
2017-12-22T11:23:45.377Z,9.40
2017-12-22T11:26:13.738Z,10.03
2017-12-22T11:28:42.078Z,10.70
2017-12-22T11:31:11.179Z,10.83
2017-12-22T11:33:39.546Z,10.27
2017-12-22T11:36:08.213Z,10.07
2017-12-22T11:38:36.557Z,12.00
2017-12-22T11:41:04.905Z,11.20
2017-12-22T11:43:34.006Z,8.93
2017-12-22T11:46:03.111Z,8.80
2017-12-22T11:48:31.405Z,9.10
2017-12-22T11:50:59.716Z,9.83
2017-12-22T11:53:28.809Z,10.10
2017-12-22T11:55:58.271Z,10.57
2017-12-22T11:58:26.669Z,10.00
2017-12-22T12:00:55.008Z,10.27
2017-12-22T12:03:24.100Z,10.23
2017-12-22T12:05:52.456Z,10.40
2017-12-22T12:08:21.565Z,9.23
2017-12-22T12:10:49.905Z,10.93
2017-12-22T12:13:18.275Z,10.33
2017-12-22T12:15:46.603Z,9.60
2017-12-22T12:18:14.933Z,9.47
2017-12-22T12:20:43.312Z,9.17
2017-12-22T12:23:11.622Z,9.70
2017-12-22T12:25:40.010Z,10.53
2017-12-22T12:28:09.873Z,9.83
2017-12-22T12:30:38.236Z,10.03
2017-12-22T12:33:07.722Z,9.10
2017-12-22T12:35:36.033Z,8.73
2017-12-22T12:38:04.365Z,8.93
2017-12-22T12:40:33.453Z,9.43
2017-12-22T12:43:02.546Z,9.60
2017-12-22T12:45:31.657Z,7.77
2017-12-22T12:47:59.989Z,8.90
2017-12-22T12:50:28.314Z,10.27
2017-12-22T12:52:57.400Z,9.20
2017-12-22T12:55:26.499Z,8.50
2017-12-22T12:57:55.574Z,7.70
2017-12-22T13:00:24.675Z,7.27
2017-12-22T13:02:53.003Z,7.97
2017-12-22T13:05:21.309Z,7.67
2017-12-22T13:07:49.659Z,7.77
2017-12-22T13:10:17.991Z,7.67
2017-12-22T13:12:46.316Z,7.70
2017-12-22T13:15:14.620Z,7.60
2017-12-22T13:17:43.774Z,8.33
2017-12-22T13:20:12.088Z,7.63
2017-12-22T13:22:40.412Z,7.23
2017-12-22T13:25:09.998Z,8.07
2017-12-22T13:27:39.125Z,9.10
2017-12-22T13:30:07.546Z,7.93
2017-12-22T13:32:37.807Z,7.40
2017-12-22T13:35:06.177Z,7.47
2017-12-22T13:37:34.483Z,8.73
2017-12-22T13:40:02.807Z,8.90
2017-12-22T13:42:31.132Z,10.13
2017-12-22T13:45:00.242Z,7.83
2017-12-22T13:47:28.585Z,8.00
2017-12-22T13:49:56.905Z,8.77
2017-12-22T13:52:25.261Z,8.70
2017-12-22T13:54:53.552Z,9.53
2017-12-22T13:57:21.889Z,9.90
2017-12-22T13:59:50.222Z,8.33
2017-12-22T14:02:19.289Z,9.43
2017-12-22T14:04:47.611Z,9.20
2017-12-22T14:07:15.922Z,9.97
2017-12-22T14:09:45.027Z,10.27
2017-12-22T14:12:14.290Z,8.63
2017-12-22T14:14:42.624Z,9.30
2017-12-22T14:17:10.952Z,8.70
2017-12-22T14:19:40.042Z,9.87
2017-12-22T14:22:08.822Z,7.73
2017-12-22T14:24:37.117Z,8.33
2017-12-22T14:27:05.438Z,10.23
2017-12-22T14:29:33.775Z,10.03
2017-12-22T14:32:02.086Z,10.03
2017-12-22T14:34:30.415Z,10.00
2017-12-22T14:36:58.766Z,10.10
2017-12-22T14:39:27.216Z,9.57
2017-12-22T14:41:56.277Z,8.43
2017-12-22T14:44:24.621Z,8.77
2017-12-22T14:46:52.920Z,8.83
2017-12-22T14:49:21.242Z,9.73
2017-12-22T14:51:49.561Z,8.83
2017-12-22T14:54:17.906Z,7.73
2017-12-22T14:56:46.235Z,7.67
2017-12-22T14:59:14.545Z,8.80
2017-12-22T15:01:43.128Z,7.40
2017-12-22T15:04:11.451Z,7.80
2017-12-22T15:06:39.795Z,8.57
2017-12-22T15:09:08.104Z,8.20
2017-12-22T15:11:37.205Z,7.30
2017-12-22T15:14:06.305Z,8.03
2017-12-22T15:16:34.654Z,8.27
2017-12-22T15:19:02.973Z,7.70
2017-12-22T15:21:32.072Z,8.50
2017-12-22T15:24:00.371Z,7.27
2017-12-22T15:26:28.697Z,6.80
2017-12-22T15:28:59.635Z,7.90
2017-12-22T15:31:28.468Z,6.30
2017-12-22T15:33:56.781Z,7.33
2017-12-22T15:36:25.096Z,6.87
2017-12-22T15:38:53.394Z,6.77
2017-12-22T15:41:21.717Z,6.60
2017-12-22T15:43:50.027Z,7.70
2017-12-22T15:46:19.121Z,8.47
2017-12-22T15:48:47.473Z,7.87
2017-12-22T15:51:16.567Z,7.83
2017-12-22T15:53:44.890Z,8.00
2017-12-22T15:56:13.253Z,7.37
2017-12-22T15:58:41.570Z,7.60
2017-12-22T16:01:09.883Z,6.93
2017-12-22T16:03:38.995Z,7.47
2017-12-22T16:06:08.061Z,6.37
2017-12-22T16:08:36.496Z,8.50
2017-12-22T16:11:04.901Z,7.67
2017-12-22T16:13:33.242Z,8.07
2017-12-22T16:16:01.549Z,6.77
2017-12-22T16:18:29.875Z,8.60
2017-12-22T16:20:58.230Z,7.03
2017-12-22T16:23:27.328Z,6.90
2017-12-22T16:25:55.662Z,6.97
2017-12-22T16:28:24.730Z,7.60
2017-12-22T16:30:53.036Z,7.27
2017-12-22T16:33:21.413Z,8.37
2017-12-22T16:35:49.754Z,8.10
2017-12-22T16:38:18.632Z,7.77
2017-12-22T16:40:47.420Z,7.13
2017-12-22T16:43:15.752Z,7.53
2017-12-22T16:45:44.233Z,7.40
2017-12-22T16:48:12.581Z,7.10
2017-12-22T16:50:40.894Z,6.73
2017-12-22T16:53:09.209Z,8.13
2017-12-22T16:55:37.504Z,7.00
2017-12-22T16:58:05.833Z,7.20
2017-12-22T17:00:34.165Z,7.30
2017-12-22T17:03:03.269Z,7.90
2017-12-22T17:05:31.621Z,6.67
2017-12-22T17:08:00.301Z,6.90
2017-12-22T17:10:28.720Z,6.40
2017-12-22T17:12:57.055Z,6.60
2017-12-22T17:15:25.370Z,7.80
2017-12-22T17:17:53.724Z,6.97
2017-12-22T17:20:22.044Z,7.07
2017-12-22T17:22:50.346Z,6.53
2017-12-22T17:25:19.670Z,6.73
2017-12-22T17:27:48.314Z,6.60
2017-12-22T17:30:17.373Z,5.90
2017-12-22T17:32:45.803Z,7.90
2017-12-22T17:35:14.934Z,6.63
2017-12-22T17:37:43.272Z,6.90
2017-12-22T17:40:11.581Z,7.10
2017-12-22T17:42:39.920Z,7.00
2017-12-22T17:45:08.215Z,7.63
2017-12-22T17:47:36.547Z,8.00
2017-12-22T17:50:05.676Z,7.30
2017-12-22T17:52:35.909Z,7.10
2017-12-22T17:55:04.225Z,7.30
2017-12-22T17:57:33.316Z,8.10
2017-12-22T18:00:02.416Z,7.80
2017-12-22T18:02:30.752Z,8.20
2017-12-22T18:04:59.061Z,8.40
2017-12-22T18:07:27.443Z,7.77
2017-12-22T18:09:55.752Z,9.00
2017-12-22T18:12:24.083Z,9.03
2017-12-22T18:14:53.161Z,17.87
2017-12-22T18:17:22.259Z,12.70
2017-12-22T18:19:51.336Z,9.03
2017-12-22T18:22:20.442Z,9.50
2017-12-22T18:24:49.708Z,9.10
2017-12-22T18:27:18.922Z,9.80
2017-12-22T18:29:47.293Z,10.00
2017-12-22T18:32:15.622Z,10.80
2017-12-22T18:34:43.925Z,10.40
2017-12-22T18:37:12.223Z,11.90
2017-12-22T18:39:40.558Z,11.00
2017-12-22T18:42:09.687Z,12.63
2017-12-22T18:44:37.998Z,11.27
2017-12-22T18:47:06.292Z,12.37
2017-12-22T18:49:35.402Z,10.97
2017-12-22T18:52:03.706Z,10.57
2017-12-22T18:54:32.040Z,11.33
2017-12-22T18:57:00.453Z,11.63
2017-12-22T18:59:28.857Z,12.20
2017-12-22T19:01:57.285Z,10.30
2017-12-22T19:04:25.667Z,10.77
2017-12-22T19:06:54.079Z,10.57
2017-12-22T19:09:22.415Z,11.77
2017-12-22T19:11:50.726Z,11.40
2017-12-22T19:14:19.837Z,10.47
2017-12-22T19:16:48.168Z,9.80
2017-12-22T19:19:16.470Z,9.43
2017-12-22T19:21:44.830Z,10.93
2017-12-22T19:24:13.161Z,11.40
2017-12-22T19:26:41.453Z,13.27
2017-12-22T19:29:09.766Z,12.90
2017-12-22T19:31:38.076Z,13.87
2017-12-22T19:34:06.418Z,14.40
2017-12-22T19:36:34.754Z,14.77
2017-12-22T19:39:03.066Z,14.57
2017-12-22T19:41:31.405Z,15.00
2017-12-22T19:44:00.706Z,15.80
2017-12-22T19:46:29.782Z,13.97
2017-12-22T19:48:58.125Z,14.63
2017-12-22T19:51:26.451Z,12.20
2017-12-22T19:53:54.760Z,10.97
2017-12-22T19:56:23.107Z,11.93
2017-12-22T19:58:51.442Z,10.23
2017-12-22T20:01:19.773Z,12.83
2017-12-22T20:03:49.033Z,10.93
2017-12-22T20:06:18.168Z,11.10
2017-12-22T20:08:47.296Z,14.03
2017-12-22T20:11:16.484Z,11.80
2017-12-22T20:13:45.761Z,13.60
2017-12-22T20:16:14.862Z,14.00
2017-12-22T20:18:43.156Z,13.77
2017-12-22T20:21:11.568Z,16.67
2017-12-22T20:23:39.925Z,14.40
2017-12-22T20:26:09.017Z,14.47
2017-12-22T20:28:37.349Z,12.50
2017-12-22T20:31:06.485Z,14.43
2017-12-22T20:33:34.820Z,15.43
2017-12-22T20:36:03.160Z,14.70
2017-12-22T20:38:31.554Z,14.13
2017-12-22T20:40:59.911Z,13.30
2017-12-22T20:43:28.238Z,13.63
2017-12-22T20:45:56.533Z,14.27
2017-12-22T20:48:24.900Z,14.20
2017-12-22T20:50:53.208Z,13.27
2017-12-22T20:53:21.504Z,13.43
2017-12-22T20:55:49.825Z,13.33
2017-12-22T20:58:18.723Z,11.53
2017-12-22T21:00:47.065Z,13.07
2017-12-22T21:03:15.434Z,12.10
2017-12-22T21:05:43.749Z,11.77
2017-12-22T21:08:12.065Z,12.40
2017-12-22T21:10:41.188Z,11.93
2017-12-22T21:13:09.492Z,11.50
2017-12-22T21:15:37.844Z,13.67
2017-12-22T21:18:06.144Z,11.37
2017-12-22T21:20:34.475Z,11.10
2017-12-22T21:23:02.811Z,12.30
2017-12-22T21:25:31.105Z,12.00
2017-12-22T21:27:59.449Z,12.10
2017-12-22T21:30:27.784Z,10.63
2017-12-22T21:32:56.865Z,10.73
2017-12-22T21:35:25.974Z,12.13
2017-12-22T21:37:54.278Z,11.20
2017-12-22T21:40:23.396Z,11.63
2017-12-22T21:42:51.698Z,9.17
2017-12-22T21:45:20.030Z,11.70
2017-12-22T21:47:48.371Z,11.20
2017-12-22T21:50:16.720Z,12.30
2017-12-22T21:52:45.023Z,12.50
2017-12-22T21:55:13.359Z,12.43
2017-12-22T21:57:41.704Z,12.90
2017-12-22T22:00:10.045Z,11.40
2017-12-22T22:02:39.150Z,11.40
2017-12-22T22:05:07.517Z,10.93
2017-12-22T22:10:40.545Z,11.93
2017-12-22T22:13:08.941Z,13.60
2017-12-22T22:15:37.368Z,13.40
2017-12-22T22:18:05.688Z,11.87
2017-12-22T22:20:34.797Z,13.47
2017-12-22T22:23:03.886Z,12.17
2017-12-22T22:25:32.243Z,10.07
2017-12-22T22:28:00.592Z,13.50
2017-12-22T22:30:29.050Z,14.90
2017-12-22T22:32:57.443Z,13.23
2017-12-22T22:35:25.832Z,14.53
2017-12-22T22:37:55.913Z,14.43
2017-12-22T22:40:25.061Z,12.67
2017-12-22T22:42:54.371Z,11.80
2017-12-22T22:45:23.690Z,14.57
2017-12-22T22:47:52.764Z,10.80
2017-12-22T22:50:21.171Z,11.00
2017-12-22T22:52:49.474Z,14.07
2017-12-22T22:55:17.781Z,14.77
2017-12-22T22:57:46.115Z,12.57
2017-12-22T23:00:15.172Z,12.70
2017-12-22T23:02:43.555Z,11.03
2017-12-22T23:05:11.898Z,16.63
2017-12-22T23:07:41.074Z,11.70
2017-12-22T23:10:10.165Z,13.50
2017-12-22T23:12:39.262Z,12.03
2017-12-22T23:15:07.569Z,14.80
2017-12-22T23:17:35.920Z,10.40
2017-12-22T23:20:04.238Z,16.40
2017-12-22T23:22:32.591Z,14.63
2017-12-22T23:25:00.912Z,12.60
2017-12-22T23:27:29.265Z,11.50
2017-12-22T23:29:57.598Z,10.93
2017-12-22T23:32:25.894Z,11.40
2017-12-22T23:34:55.896Z,12.27
2017-12-22T23:37:24.198Z,12.20
2017-12-22T23:39:52.525Z,11.97
2017-12-22T23:42:21.677Z,11.57
2017-12-22T23:44:50.768Z,9.97
2017-12-22T23:47:19.874Z,12.47
2017-12-22T23:49:48.191Z,11.90
2017-12-22T23:52:16.505Z,11.67
2017-12-22T23:54:44.878Z,13.30
2017-12-22T23:57:13.218Z,12.37
2017-12-22T23:59:41.562Z,13.20
